createdAt,value
2018-06-25T00:02:21.464Z,56.30
2018-06-25T00:04:49.960Z,56.47
2018-06-25T00:07:18.735Z,56.71
2018-06-25T00:09:47.333Z,56.28
2018-06-25T00:12:15.875Z,56.14
2018-06-25T00:14:44.456Z,56.58
2018-06-25T00:17:12.941Z,56.68
2018-06-25T00:19:41.528Z,56.22
2018-06-25T00:22:10.064Z,56.63
2018-06-25T00:24:38.616Z,55.87
2018-06-25T00:27:07.157Z,56.53
2018-06-25T00:29:35.713Z,56.51
2018-06-25T00:32:04.342Z,55.92
2018-06-25T00:34:32.908Z,56.50
2018-06-25T00:37:01.492Z,57.00
2018-06-25T00:39:30.096Z,56.60
2018-06-25T00:41:58.687Z,57.01
2018-06-25T00:44:27.222Z,57.10
2018-06-25T00:46:55.766Z,56.29
2018-06-25T00:49:24.328Z,56.50
2018-06-25T00:51:52.922Z,56.43
2018-06-25T00:54:21.519Z,56.96
2018-06-25T00:56:50.040Z,57.33
2018-06-25T00:59:29.630Z,56.94
2018-06-25T01:01:58.206Z,56.88
2018-06-25T01:04:26.911Z,56.32
2018-06-25T01:06:55.578Z,56.96
2018-06-25T01:09:24.161Z,56.54
2018-06-25T01:11:52.701Z,56.44
2018-06-25T01:14:21.309Z,56.37
2018-06-25T01:16:49.907Z,57.05
2018-06-25T01:19:18.376Z,56.54
2018-06-25T01:21:46.947Z,56.35
2018-06-25T01:24:15.493Z,56.85
2018-06-25T01:26:43.982Z,57.20
2018-06-25T01:29:12.477Z,56.69
2018-06-25T01:31:41.047Z,57.32
2018-06-25T01:34:09.632Z,56.69
2018-06-25T01:36:38.146Z,57.30
2018-06-25T01:39:09.124Z,56.95
2018-06-25T01:41:37.633Z,57.13
2018-06-25T01:44:06.608Z,56.81
2018-06-25T01:46:35.209Z,56.86
2018-06-25T01:49:03.776Z,56.79
2018-06-25T01:51:32.238Z,56.90
2018-06-25T01:54:00.898Z,57.69
2018-06-25T01:56:29.542Z,57.09
2018-06-25T01:58:58.204Z,57.06
2018-06-25T02:01:26.818Z,57.64
2018-06-25T02:03:55.373Z,57.03
2018-06-25T02:06:23.930Z,56.87
2018-06-25T02:08:52.524Z,57.63
2018-06-25T02:11:21.053Z,57.67
2018-06-25T02:13:49.580Z,57.28
2018-06-25T02:16:18.104Z,57.40
2018-06-25T02:18:46.641Z,57.45
2018-06-25T02:21:15.189Z,57.16
2018-06-25T02:23:43.724Z,57.06
2018-06-25T02:26:12.294Z,57.64
2018-06-25T02:28:40.833Z,57.66
2018-06-25T02:31:09.484Z,56.83
2018-06-25T02:33:38.022Z,57.51
2018-06-25T02:36:06.834Z,56.96
2018-06-25T02:38:35.531Z,56.71
2018-06-25T02:41:04.100Z,56.93
2018-06-25T02:43:34.645Z,56.96
2018-06-25T02:46:04.757Z,57.05
2018-06-25T02:48:34.972Z,57.58
2018-06-25T02:51:05.089Z,58.17
2018-06-25T02:53:33.800Z,57.91
2018-06-25T02:56:02.503Z,57.99
2018-06-25T02:58:31.180Z,58.73
2018-06-25T03:00:59.766Z,58.06
2018-06-25T03:03:28.351Z,58.59
2018-06-25T03:05:56.905Z,59.02
2018-06-25T03:08:25.533Z,58.68
2018-06-25T03:10:54.073Z,58.99
2018-06-25T03:13:22.658Z,59.22
2018-06-25T03:15:51.252Z,59.07
2018-06-25T03:18:19.878Z,59.18
2018-06-25T03:20:48.418Z,58.76
2018-06-25T03:23:17.051Z,58.68
2018-06-25T03:25:45.686Z,59.23
2018-06-25T03:28:14.294Z,59.13
2018-06-25T03:30:42.835Z,58.87
2018-06-25T03:33:11.813Z,59.58
2018-06-25T03:35:40.497Z,58.73
2018-06-25T03:38:09.026Z,58.83
2018-06-25T03:40:37.767Z,59.52
2018-06-25T03:43:06.566Z,58.96
2018-06-25T03:45:35.266Z,59.02
2018-06-25T03:48:03.801Z,59.80
2018-06-25T03:50:33.342Z,59.30
2018-06-25T03:53:02.163Z,59.58
2018-06-25T03:55:30.766Z,59.51
2018-06-25T03:57:59.325Z,59.38
2018-06-25T04:00:27.900Z,59.70
2018-06-25T04:02:56.479Z,59.36
2018-06-25T04:05:25.121Z,59.73
2018-06-25T04:07:53.723Z,59.98
2018-06-25T04:10:22.248Z,59.89
2018-06-25T04:12:50.821Z,59.84
2018-06-25T04:15:19.477Z,59.51
2018-06-25T04:17:48.018Z,59.34
2018-06-25T04:20:16.681Z,59.50
2018-06-25T04:22:45.213Z,59.89
2018-06-25T04:25:13.819Z,59.91
2018-06-25T04:27:42.418Z,58.82
2018-06-25T04:30:11.043Z,59.42
2018-06-25T04:32:39.740Z,59.65
2018-06-25T04:35:08.497Z,59.14
2018-06-25T04:37:37.138Z,59.17
2018-06-25T04:40:05.789Z,58.28
2018-06-25T04:42:34.319Z,58.66
2018-06-25T04:45:03.004Z,58.50
2018-06-25T04:47:31.586Z,58.30
2018-06-25T04:50:00.088Z,58.26
2018-06-25T04:52:28.648Z,58.44
2018-06-25T04:54:57.274Z,58.27
2018-06-25T04:57:25.930Z,57.98
2018-06-25T04:59:54.444Z,58.59
2018-06-25T05:02:23.064Z,57.90
2018-06-25T05:04:51.732Z,58.25
2018-06-25T05:07:20.311Z,58.29
2018-06-25T05:09:48.888Z,57.86
2018-06-25T05:12:17.466Z,58.11
2018-06-25T05:14:45.995Z,58.19
2018-06-25T05:17:14.722Z,58.07
2018-06-25T05:19:43.515Z,58.52
2018-06-25T05:22:12.498Z,58.71
2018-06-25T05:24:41.430Z,57.91
2018-06-25T05:27:10.237Z,58.06
2018-06-25T05:29:38.887Z,58.00
2018-06-25T05:32:07.581Z,58.11
2018-06-25T05:34:36.267Z,58.67
2018-06-25T05:37:05.772Z,58.53
2018-06-25T05:39:34.502Z,57.99
2018-06-25T05:42:03.972Z,58.36
2018-06-25T05:44:32.523Z,58.73
2018-06-25T05:47:01.627Z,58.00
2018-06-25T05:49:30.188Z,58.05
2018-06-25T05:51:59.260Z,58.61
2018-06-25T05:54:28.112Z,58.01
2018-06-25T05:56:56.748Z,59.06
2018-06-25T05:59:25.352Z,58.84
2018-06-25T06:01:54.273Z,59.40
2018-06-25T06:04:22.862Z,59.25
2018-06-25T06:06:51.436Z,58.92
2018-06-25T06:09:20.156Z,58.51
2018-06-25T06:11:48.966Z,58.75
2018-06-25T06:14:17.931Z,59.13
2018-06-25T06:16:46.759Z,59.50
2018-06-25T06:19:15.438Z,59.43
2018-06-25T06:21:44.069Z,59.05
2018-06-25T06:24:12.662Z,59.39
2018-06-25T06:26:41.149Z,59.52
2018-06-25T06:29:09.692Z,58.96
2018-06-25T06:31:38.279Z,58.91
2018-06-25T06:34:07.320Z,58.59
2018-06-25T06:36:35.921Z,59.00
2018-06-25T06:39:06.927Z,58.56
2018-06-25T06:41:35.727Z,58.32
2018-06-25T06:44:04.644Z,59.02
2018-06-25T06:46:33.477Z,58.88
2018-06-25T06:49:02.300Z,58.28
2018-06-25T06:51:31.255Z,58.39
2018-06-25T06:53:59.841Z,58.07
2018-06-25T06:56:28.458Z,57.98
2018-06-25T06:58:57.120Z,57.70
2018-06-25T07:01:25.808Z,58.11
2018-06-25T07:03:55.039Z,57.69
2018-06-25T07:06:23.734Z,58.41
2018-06-25T07:08:52.396Z,57.74
2018-06-25T07:11:21.182Z,57.20
2018-06-25T07:13:49.840Z,57.50
2018-06-25T07:16:18.629Z,57.40
2018-06-25T07:18:47.273Z,57.17
2018-06-25T07:21:15.967Z,57.35
2018-06-25T07:23:44.595Z,57.39
2018-06-25T07:26:13.514Z,57.42
2018-06-25T07:28:42.096Z,56.92
2018-06-25T07:31:10.717Z,57.01
2018-06-25T07:33:39.264Z,56.46
2018-06-25T07:36:07.842Z,56.01
2018-06-25T07:38:36.348Z,55.70
2018-06-25T07:41:05.318Z,55.65
2018-06-25T07:43:34.050Z,55.44
2018-06-25T07:46:02.687Z,55.51
2018-06-25T07:48:31.440Z,55.10
2018-06-25T07:51:00.041Z,55.68
2018-06-25T07:53:28.831Z,55.12
2018-06-25T07:55:57.388Z,55.19
2018-06-25T07:58:25.966Z,55.60
2018-06-25T08:00:54.509Z,55.36
2018-06-25T08:03:23.115Z,55.52
2018-06-25T08:05:51.692Z,55.82
2018-06-25T08:08:20.375Z,55.02
2018-06-25T08:10:48.926Z,54.77
2018-06-25T08:13:17.525Z,55.61
2018-06-25T08:15:46.018Z,54.84
2018-06-25T08:18:14.592Z,55.04
2018-06-25T08:20:43.036Z,55.11
2018-06-25T08:23:11.543Z,54.71
2018-06-25T08:25:40.063Z,55.03
2018-06-25T08:28:08.620Z,54.79
2018-06-25T08:30:37.062Z,54.27
2018-06-25T08:33:06.461Z,54.39
2018-06-25T08:35:34.898Z,54.14
2018-06-25T08:38:03.486Z,53.70
2018-06-25T08:40:32.006Z,54.32
2018-06-25T08:43:00.535Z,54.59
2018-06-25T08:45:29.015Z,53.64
2018-06-25T08:47:57.571Z,54.26
2018-06-25T08:50:26.039Z,54.85
2018-06-25T08:52:54.541Z,53.55
2018-06-25T08:55:23.031Z,52.96
2018-06-25T08:57:51.686Z,52.19
2018-06-25T09:00:20.191Z,52.22
2018-06-25T09:02:48.769Z,51.92
2018-06-25T09:05:17.269Z,50.53
2018-06-25T09:07:45.771Z,49.69
2018-06-25T09:10:14.298Z,48.90
2018-06-25T09:12:42.815Z,49.28
2018-06-25T09:15:11.344Z,49.05
2018-06-25T09:17:39.834Z,49.68
2018-06-25T09:20:08.404Z,49.92
2018-06-25T09:22:36.937Z,50.62
2018-06-25T09:25:05.418Z,51.07
2018-06-25T09:27:39.195Z,50.67
2018-06-25T09:30:07.800Z,50.05
2018-06-25T09:32:36.379Z,49.36
2018-06-25T09:35:05.013Z,46.43
2018-06-25T09:37:33.539Z,44.67
2018-06-25T09:40:02.024Z,45.56
2018-06-25T09:42:30.523Z,43.88
2018-06-25T09:44:58.982Z,44.18
2018-06-25T09:47:27.549Z,42.91
2018-06-25T09:49:56.118Z,40.67
2018-06-25T09:52:24.633Z,40.63
2018-06-25T09:54:53.410Z,40.71
2018-06-25T09:57:21.869Z,40.13
2018-06-25T09:59:50.447Z,39.24
2018-06-25T10:02:19.056Z,39.79
2018-06-25T10:04:47.612Z,40.57
2018-06-25T10:07:16.184Z,40.38
2018-06-25T10:09:44.888Z,40.97
2018-06-25T10:12:13.446Z,41.94
2018-06-25T10:14:42.095Z,42.17
2018-06-25T10:17:10.735Z,42.07
2018-06-25T10:19:39.452Z,42.42
2018-06-25T10:22:08.082Z,42.56
2018-06-25T10:24:36.753Z,42.56
2018-06-25T10:27:05.340Z,43.58
2018-06-25T10:29:34.031Z,43.31
2018-06-25T10:32:02.830Z,42.80
2018-06-25T10:34:31.554Z,43.36
2018-06-25T10:37:00.246Z,43.37
2018-06-25T10:39:29.022Z,44.20
2018-06-25T10:41:58.457Z,43.91
2018-06-25T10:44:27.526Z,44.26
2018-06-25T10:46:57.550Z,44.37
2018-06-25T10:49:26.162Z,45.19
2018-06-25T10:51:55.093Z,45.15
2018-06-25T10:54:23.849Z,44.73
2018-06-25T10:56:53.297Z,44.90
2018-06-25T10:59:22.153Z,44.68
2018-06-25T11:01:50.787Z,44.96
2018-06-25T11:04:19.501Z,45.06
2018-06-25T11:06:48.411Z,45.22
2018-06-25T11:09:17.027Z,45.03
2018-06-25T11:11:46.405Z,45.56
2018-06-25T11:14:15.036Z,45.59
2018-06-25T11:16:43.684Z,45.05
2018-06-25T11:19:12.573Z,44.96
2018-06-25T11:21:41.271Z,45.80
2018-06-25T11:24:10.033Z,45.47
2018-06-25T11:26:38.702Z,45.79
2018-06-25T11:29:07.332Z,46.14
2018-06-25T11:31:35.977Z,45.29
2018-06-25T11:34:04.783Z,45.40
2018-06-25T11:36:33.400Z,44.73
2018-06-25T11:39:02.078Z,45.48
2018-06-25T11:41:30.788Z,44.08
2018-06-25T11:43:59.439Z,45.11
2018-06-25T11:46:27.960Z,45.17
2018-06-25T11:48:56.684Z,44.63
2018-06-25T11:51:25.879Z,44.62
2018-06-25T11:53:54.668Z,43.53
2018-06-25T11:56:23.426Z,44.30
2018-06-25T11:58:51.983Z,43.99
2018-06-25T12:01:20.548Z,44.03
2018-06-25T12:03:49.129Z,44.38
2018-06-25T12:06:17.748Z,43.61
2018-06-25T12:08:46.270Z,43.11
2018-06-25T12:11:14.756Z,43.20
2018-06-25T12:13:43.318Z,42.27
2018-06-25T12:16:11.915Z,41.88
2018-06-25T12:18:40.369Z,42.25
2018-06-25T12:21:09.060Z,41.71
2018-06-25T12:23:38.592Z,40.55
2018-06-25T12:26:07.208Z,40.11
2018-06-25T12:28:35.823Z,40.15
2018-06-25T12:31:04.441Z,41.37
2018-06-25T12:33:33.079Z,41.11
2018-06-25T12:36:01.807Z,40.47
2018-06-25T12:38:30.356Z,40.30
2018-06-25T12:40:59.666Z,40.79
2018-06-25T12:43:29.627Z,40.61
2018-06-25T12:45:59.160Z,39.72
2018-06-25T12:48:27.827Z,39.56
2018-06-25T12:50:56.602Z,39.35
2018-06-25T12:53:25.360Z,38.04
2018-06-25T12:55:54.097Z,38.79
2018-06-25T12:58:24.873Z,37.20
2018-06-25T13:00:54.230Z,37.63
2018-06-25T13:03:22.795Z,38.47
2018-06-25T13:05:55.317Z,37.13
2018-06-25T13:08:24.074Z,36.63
2018-06-25T13:10:53.489Z,37.00
2018-06-25T13:13:22.276Z,36.92
2018-06-25T13:15:51.233Z,37.43
2018-06-25T13:18:20.047Z,37.09
2018-06-25T13:20:48.873Z,36.83
2018-06-25T13:23:17.610Z,37.86
2018-06-25T13:25:46.508Z,35.20
2018-06-25T13:28:15.877Z,35.96
2018-06-25T13:30:44.543Z,35.62
2018-06-25T13:33:13.157Z,35.18
2018-06-25T13:35:41.900Z,34.95
2018-06-25T13:38:10.780Z,35.10
2018-06-25T13:40:39.434Z,35.65
2018-06-25T13:43:08.460Z,34.91
2018-06-25T13:45:37.155Z,35.00
2018-06-25T13:48:05.753Z,34.82
2018-06-25T13:50:34.376Z,34.21
2018-06-25T13:53:02.887Z,34.38
2018-06-25T13:55:31.545Z,34.45
2018-06-25T13:58:00.205Z,34.26
2018-06-25T14:00:28.744Z,34.45
2018-06-25T14:02:57.344Z,34.77
2018-06-25T14:05:26.072Z,35.00
2018-06-25T14:07:55.022Z,34.93
2018-06-25T14:10:23.609Z,35.71
2018-06-25T14:12:52.182Z,35.43
2018-06-25T14:15:20.917Z,35.40
2018-06-25T14:17:49.503Z,34.39
2018-06-25T14:20:18.131Z,33.60
2018-06-25T14:22:46.631Z,34.20
2018-06-25T14:25:15.210Z,33.96
2018-06-25T14:27:48.996Z,33.78
2018-06-25T14:30:22.686Z,35.06
2018-06-25T14:32:55.337Z,35.29
2018-06-25T14:35:24.006Z,34.45
2018-06-25T14:37:52.560Z,33.86
2018-06-25T14:40:21.257Z,33.11
2018-06-25T14:42:49.823Z,33.26
2018-06-25T14:45:20.591Z,33.59
2018-06-25T14:47:49.196Z,33.75
2018-06-25T14:50:17.935Z,34.38
2018-06-25T14:52:46.640Z,34.37
2018-06-25T14:55:16.399Z,34.15
2018-06-25T14:57:45.068Z,34.67
2018-06-25T15:00:20.239Z,35.60
2018-06-25T15:02:51.252Z,34.54
2018-06-25T15:05:19.963Z,34.44
2018-06-25T15:07:48.547Z,35.76
2018-06-25T15:10:17.105Z,34.97
2018-06-25T15:12:46.738Z,35.73
2018-06-25T15:15:17.318Z,35.07
2018-06-25T15:17:47.477Z,34.91
2018-06-25T15:20:16.780Z,35.28
2018-06-25T15:22:47.350Z,35.82
2018-06-25T15:25:16.816Z,35.36
2018-06-25T15:27:45.352Z,34.37
2018-06-25T15:30:15.264Z,35.14
2018-06-25T15:32:44.090Z,34.41
2018-06-25T15:35:13.581Z,35.70
2018-06-25T15:37:46.453Z,34.75
2018-06-25T15:40:15.657Z,34.47
2018-06-25T15:42:44.520Z,35.41
2018-06-25T15:45:13.171Z,34.62
2018-06-25T15:47:42.816Z,34.34
2018-06-25T15:50:11.604Z,33.76
2018-06-25T15:52:40.322Z,35.01
2018-06-25T15:55:09.073Z,35.00
2018-06-25T15:57:37.665Z,34.16
2018-06-25T16:00:06.569Z,35.44
2018-06-25T16:02:35.319Z,34.53
2018-06-25T16:05:03.814Z,34.69
2018-06-25T16:07:32.480Z,34.24
2018-06-25T16:10:01.039Z,34.82
2018-06-25T16:12:29.725Z,34.66
2018-06-25T16:14:58.351Z,34.00
2018-06-25T16:17:27.035Z,35.35
2018-06-25T16:19:55.827Z,34.45
2018-06-25T16:22:24.686Z,35.29
2018-06-25T16:24:53.214Z,35.31
2018-06-25T16:27:21.924Z,34.90
2018-06-25T16:29:50.555Z,34.98
2018-06-25T16:32:20.105Z,34.82
2018-06-25T16:34:49.631Z,35.04
2018-06-25T16:37:20.611Z,35.15
2018-06-25T16:39:49.486Z,35.36
2018-06-25T16:42:18.105Z,34.52
2018-06-25T16:44:46.968Z,35.58
2018-06-25T16:47:16.241Z,34.93
2018-06-25T16:49:45.505Z,35.26
2018-06-25T16:52:14.552Z,35.51
2018-06-25T16:54:43.352Z,35.96
2018-06-25T16:57:13.099Z,35.84
2018-06-25T16:59:42.069Z,37.10
2018-06-25T17:02:11.459Z,36.83
2018-06-25T17:04:40.121Z,36.26
2018-06-25T17:07:08.753Z,37.47
2018-06-25T17:09:37.678Z,36.70
2018-06-25T17:12:06.593Z,37.69
2018-06-25T17:14:35.388Z,36.80
2018-06-25T17:17:05.166Z,36.79
2018-06-25T17:19:33.798Z,36.93
2018-06-25T17:22:02.694Z,37.39
2018-06-25T17:24:31.260Z,36.77
2018-06-25T17:27:00.275Z,36.51
2018-06-25T17:29:29.091Z,36.62
2018-06-25T17:31:57.990Z,36.50
2018-06-25T17:34:26.617Z,36.62
2018-06-25T17:36:55.445Z,35.50
2018-06-25T17:39:24.089Z,35.90
2018-06-25T17:41:53.707Z,35.77
2018-06-25T17:46:58.498Z,36.68
2018-06-25T17:49:27.356Z,36.10
2018-06-25T17:51:56.658Z,36.66
2018-06-25T17:54:26.267Z,36.34
2018-06-25T17:56:55.441Z,36.07
2018-06-25T17:59:24.506Z,36.21
2018-06-25T18:01:54.320Z,36.34
2018-06-25T18:04:23.689Z,36.80
2018-06-25T18:06:52.974Z,37.58
2018-06-25T18:09:23.844Z,38.06
2018-06-25T18:11:52.568Z,38.86
2018-06-25T18:14:21.326Z,37.89
2018-06-25T18:16:50.072Z,37.56
2018-06-25T18:19:18.761Z,38.25
2018-06-25T18:21:47.443Z,37.63
2018-06-25T18:24:16.235Z,38.46
2018-06-25T18:26:45.085Z,39.18
2018-06-25T18:29:13.882Z,39.21
2018-06-25T18:31:42.470Z,39.02
2018-06-25T18:34:11.070Z,39.03
2018-06-25T18:36:39.561Z,39.39
2018-06-25T18:39:10.899Z,39.42
2018-06-25T18:41:40.032Z,39.22
2018-06-25T18:44:08.711Z,39.04
2018-06-25T18:46:37.581Z,39.23
2018-06-25T18:49:06.454Z,40.18
2018-06-25T18:51:35.172Z,40.43
2018-06-25T18:54:03.888Z,39.81
2018-06-25T18:56:32.640Z,40.28
2018-06-25T18:59:01.441Z,40.70
2018-06-25T19:01:30.122Z,40.74
2018-06-25T19:03:58.799Z,40.83
2018-06-25T19:06:27.462Z,40.94
2018-06-25T19:08:56.229Z,41.58
2018-06-25T19:11:25.290Z,41.71
2018-06-25T19:13:54.496Z,41.11
2018-06-25T19:16:23.172Z,41.44
2018-06-25T19:18:51.980Z,42.05
2018-06-25T19:21:20.652Z,42.47
2018-06-25T19:23:49.705Z,42.50
2018-06-25T19:26:18.562Z,42.78
2018-06-25T19:28:47.753Z,42.61
2018-06-25T19:31:16.889Z,42.42
2018-06-25T19:33:45.664Z,43.12
2018-06-25T19:36:14.406Z,43.77
2018-06-25T19:38:42.963Z,43.01
2018-06-25T19:41:11.818Z,43.87
2018-06-25T19:43:40.433Z,43.16
2018-06-25T19:46:08.987Z,43.47
2018-06-25T19:48:37.987Z,44.24
2018-06-25T19:51:06.825Z,44.35
2018-06-25T19:53:35.697Z,44.21
2018-06-25T19:56:04.729Z,44.62
2018-06-25T19:58:33.594Z,43.75
2018-06-25T20:01:02.442Z,44.60
2018-06-25T20:03:31.393Z,44.74
2018-06-25T20:06:00.199Z,44.21
2018-06-25T20:08:28.946Z,44.89
2018-06-25T20:10:57.665Z,44.83
2018-06-25T20:13:26.464Z,44.11
2018-06-25T20:15:55.171Z,45.46
2018-06-25T20:18:23.820Z,45.19
2018-06-25T20:20:52.517Z,45.64
2018-06-25T20:23:21.169Z,45.80
2018-06-25T20:25:50.637Z,45.27
2018-06-25T20:28:19.276Z,46.38
2018-06-25T20:30:48.010Z,45.64
2018-06-25T20:33:16.758Z,45.65
2018-06-25T20:35:45.708Z,46.88
2018-06-25T20:38:14.398Z,46.98
2018-06-25T20:40:43.059Z,47.18
2018-06-25T20:43:11.815Z,47.59
2018-06-25T20:45:40.531Z,47.62
2018-06-25T20:48:09.419Z,47.71
2018-06-25T20:50:38.246Z,47.90
2018-06-25T20:53:07.215Z,48.50
2018-06-25T20:55:36.119Z,47.51
2018-06-25T20:58:04.920Z,48.64
2018-06-25T21:00:33.700Z,48.20
2018-06-25T21:03:02.562Z,48.17
2018-06-25T21:05:31.231Z,48.87
2018-06-25T21:08:00.034Z,49.44
2018-06-25T21:10:28.714Z,49.89
2018-06-25T21:12:57.355Z,49.06
2018-06-25T21:15:26.101Z,50.07
2018-06-25T21:17:54.639Z,49.96
2018-06-25T21:20:23.535Z,49.20
2018-06-25T21:22:52.108Z,50.24
2018-06-25T21:25:20.941Z,50.20
2018-06-25T21:27:50.002Z,50.35
2018-06-25T21:30:18.968Z,50.32
2018-06-25T21:32:47.728Z,49.27
2018-06-25T21:35:16.533Z,50.44
2018-06-25T21:37:45.420Z,49.58
2018-06-25T21:40:14.292Z,50.02
2018-06-25T21:42:43.145Z,50.04
2018-06-25T21:45:12.421Z,50.60
2018-06-25T21:47:41.219Z,51.14
2018-06-25T21:50:10.284Z,51.03
2018-06-25T21:52:39.192Z,51.29
2018-06-25T21:55:08.023Z,50.74
2018-06-25T21:57:36.978Z,50.81
2018-06-25T22:00:09.681Z,50.94
2018-06-25T22:02:38.689Z,51.65
2018-06-25T22:05:08.147Z,50.94
2018-06-25T22:07:36.974Z,51.57
2018-06-25T22:10:05.974Z,51.56
2018-06-25T22:12:34.734Z,51.63
2018-06-25T22:15:04.071Z,52.48
2018-06-25T22:17:32.836Z,52.49
2018-06-25T22:20:01.637Z,52.70
2018-06-25T22:22:30.305Z,52.19
2018-06-25T22:24:59.197Z,52.21
2018-06-25T22:27:27.959Z,52.71
2018-06-25T22:29:56.694Z,52.90
2018-06-25T22:32:25.391Z,52.39
2018-06-25T22:34:54.048Z,52.97
2018-06-25T22:37:22.527Z,53.33
2018-06-25T22:39:51.064Z,52.99
2018-06-25T22:42:19.631Z,52.90
2018-06-25T22:44:48.657Z,53.02
2018-06-25T22:47:17.292Z,53.56
2018-06-25T22:49:45.954Z,53.47
2018-06-25T22:52:14.560Z,53.52
2018-06-25T22:54:43.143Z,53.88
2018-06-25T22:57:11.950Z,53.89
2018-06-25T22:59:40.851Z,54.47
2018-06-25T23:02:09.533Z,54.56
2018-06-25T23:04:38.080Z,55.00
2018-06-25T23:07:06.905Z,54.91
2018-06-25T23:09:35.543Z,55.27
2018-06-25T23:12:04.149Z,54.75
2018-06-25T23:14:32.825Z,55.12
2018-06-25T23:17:01.449Z,55.17
2018-06-25T23:19:29.983Z,55.65
2018-06-25T23:21:58.597Z,55.56
2018-06-25T23:24:27.138Z,55.09
2018-06-25T23:26:55.730Z,55.81
2018-06-25T23:29:24.360Z,55.78
2018-06-25T23:31:52.994Z,55.23
2018-06-25T23:34:21.463Z,56.13
2018-06-25T23:36:49.976Z,56.15
2018-06-25T23:39:18.537Z,55.52
2018-06-25T23:41:47.142Z,56.19
2018-06-25T23:44:15.614Z,56.34
2018-06-25T23:46:44.167Z,56.37
2018-06-25T23:49:12.869Z,55.79
2018-06-25T23:51:41.483Z,55.79
2018-06-25T23:54:10.219Z,56.35
2018-06-25T23:56:38.834Z,56.58
2018-06-25T23:59:07.367Z,56.74
